sensor_id;sensor_type;location;lat;lon;timestamp;P1;durP1;ratioP1;P2;durP2;ratioP2
23716;SDS011;22094;52.130;5.598;2023-02-26T00:00:15;11.95;;;2.97;;
23716;SDS011;22094;52.130;5.598;2023-02-26T00:02:41;12.90;;;2.85;;
23716;SDS011;22094;52.130;5.598;2023-02-26T00:05:08;8.13;;;3.28;;
23716;SDS011;22094;52.130;5.598;2023-02-26T00:07:34;10.27;;;2.92;;
23716;SDS011;22094;52.130;5.598;2023-02-26T00:10:00;7.70;;;3.15;;
23716;SDS011;22094;52.130;5.598;2023-02-26T00:12:27;9.93;;;3.10;;
23716;SDS011;22094;52.130;5.598;2023-02-26T00:14:53;8.70;;;2.95;;
23716;SDS011;22094;52.130;5.598;2023-02-26T00:19:54;9.20;;;3.15;;
23716;SDS011;22094;52.130;5.598;2023-02-26T00:22:20;6.53;;;2.55;;
23716;SDS011;22094;52.130;5.598;2023-02-26T00:24:46;6.07;;;2.38;;
23716;SDS011;22094;52.130;5.598;2023-02-26T00:27:11;7.30;;;2.38;;
23716;SDS011;22094;52.130;5.598;2023-02-26T00:29:37;7.00;;;2.00;;
23716;SDS011;22094;52.130;5.598;2023-02-26T00:32:03;8.25;;;1.60;;
23716;SDS011;22094;52.130;5.598;2023-02-26T00:34:29;7.65;;;1.55;;
23716;SDS011;22094;52.130;5.598;2023-02-26T00:37:04;6.50;;;1.33;;
23716;SDS011;22094;52.130;5.598;2023-02-26T00:39:42;6.63;;;1.33;;
23716;SDS011;22094;52.130;5.598;2023-02-26T00:42:10;6.03;;;1.60;;
23716;SDS011;22094;52.130;5.598;2023-02-26T00:44:36;8.57;;;1.90;;
23716;SDS011;22094;52.130;5.598;2023-02-26T00:47:07;5.70;;;1.90;;
23716;SDS011;22094;52.130;5.598;2023-02-26T00:50:01;9.73;;;2.00;;
23716;SDS011;22094;52.130;5.598;2023-02-26T00:55:06;10.27;;;1.90;;
23716;SDS011;22094;52.130;5.598;2023-02-26T00:57:32;8.52;;;1.85;;
23716;SDS011;22094;52.130;5.598;2023-02-26T00:59:57;6.47;;;1.63;;
23716;SDS011;22094;52.130;5.598;2023-02-26T01:02:23;8.43;;;1.45;;
23716;SDS011;22094;52.130;5.598;2023-02-26T01:04:49;12.40;;;1.70;;
23716;SDS011;22094;52.130;5.598;2023-02-26T01:07:15;5.65;;;1.40;;
23716;SDS011;22094;52.130;5.598;2023-02-26T01:09:46;8.32;;;1.40;;
23716;SDS011;22094;52.130;5.598;2023-02-26T01:12:12;5.40;;;1.50;;
23716;SDS011;22094;52.130;5.598;2023-02-26T01:14:38;4.85;;;1.90;;
23716;SDS011;22094;52.130;5.598;2023-02-26T01:17:15;6.68;;;1.83;;
23716;SDS011;22094;52.130;5.598;2023-02-26T01:22:21;8.23;;;1.30;;
23716;SDS011;22094;52.130;5.598;2023-02-26T01:24:48;4.90;;;1.50;;
23716;SDS011;22094;52.130;5.598;2023-02-26T01:27:19;7.05;;;1.40;;
23716;SDS011;22094;52.130;5.598;2023-02-26T01:29:45;6.78;;;1.40;;
23716;SDS011;22094;52.130;5.598;2023-02-26T01:32:15;4.25;;;1.50;;
23716;SDS011;22094;52.130;5.598;2023-02-26T01:34:50;8.13;;;1.40;;
23716;SDS011;22094;52.130;5.598;2023-02-26T01:37:40;6.15;;;1.40;;
23716;SDS011;22094;52.130;5.598;2023-02-26T01:43:36;9.45;;;1.40;;
23716;SDS011;22094;52.130;5.598;2023-02-26T01:48:53;3.80;;;1.55;;
23716;SDS011;22094;52.130;5.598;2023-02-26T01:54:09;6.75;;;1.30;;
23716;SDS011;22094;52.130;5.598;2023-02-26T01:56:35;7.13;;;1.50;;
23716;SDS011;22094;52.130;5.598;2023-02-26T01:59:02;2.75;;;0.98;;
23716;SDS011;22094;52.130;5.598;2023-02-26T02:01:31;4.75;;;1.40;;
23716;SDS011;22094;52.130;5.598;2023-02-26T02:03:57;7.65;;;1.23;;
23716;SDS011;22094;52.130;5.598;2023-02-26T02:06:24;6.60;;;2.25;;
23716;SDS011;22094;52.130;5.598;2023-02-26T02:08:51;3.38;;;1.17;;
23716;SDS011;22094;52.130;5.598;2023-02-26T02:11:17;8.23;;;1.77;;
23716;SDS011;22094;52.130;5.598;2023-02-26T02:27:32;9.80;;;1.30;;
23716;SDS011;22094;52.130;5.598;2023-02-26T02:37:46;7.60;;;1.45;;
23716;SDS011;22094;52.130;5.598;2023-02-26T02:40:22;5.55;;;1.60;;
23716;SDS011;22094;52.130;5.598;2023-02-26T02:42:59;8.27;;;1.63;;
23716;SDS011;22094;52.130;5.598;2023-02-26T02:51:03;5.20;;;1.15;;
23716;SDS011;22094;52.130;5.598;2023-02-26T02:56:13;8.63;;;1.55;;
23716;SDS011;22094;52.130;5.598;2023-02-26T02:58:48;8.20;;;2.15;;
23716;SDS011;22094;52.130;5.598;2023-02-26T03:01:18;7.20;;;1.30;;
23716;SDS011;22094;52.130;5.598;2023-02-26T03:06:29;4.72;;;1.38;;
23716;SDS011;22094;52.130;5.598;2023-02-26T03:08:55;7.95;;;1.60;;
23716;SDS011;22094;52.130;5.598;2023-02-26T03:11:21;2.17;;;1.00;;
23716;SDS011;22094;52.130;5.598;2023-02-26T03:13:48;11.20;;;1.85;;
23716;SDS011;22094;52.130;5.598;2023-02-26T03:21:28;7.82;;;1.35;;
23716;SDS011;22094;52.130;5.598;2023-02-26T03:24:05;7.28;;;1.27;;
23716;SDS011;22094;52.130;5.598;2023-02-26T03:26:33;6.13;;;1.40;;
23716;SDS011;22094;52.130;5.598;2023-02-26T03:29:08;5.15;;;1.20;;
23716;SDS011;22094;52.130;5.598;2023-02-26T03:31:52;5.13;;;1.00;;
23716;SDS011;22094;52.130;5.598;2023-02-26T03:37:08;6.50;;;1.20;;
23716;SDS011;22094;52.130;5.598;2023-02-26T03:39:42;3.60;;;0.80;;
23716;SDS011;22094;52.130;5.598;2023-02-26T03:42:15;6.95;;;1.15;;
23716;SDS011;22094;52.130;5.598;2023-02-26T03:44:48;8.57;;;1.40;;
23716;SDS011;22094;52.130;5.598;2023-02-26T03:47:18;8.25;;;1.83;;
23716;SDS011;22094;52.130;5.598;2023-02-26T03:49:47;3.83;;;1.10;;
23716;SDS011;22094;52.130;5.598;2023-02-26T03:52:17;5.55;;;1.60;;
23716;SDS011;22094;52.130;5.598;2023-02-26T03:54:48;4.43;;;1.30;;
23716;SDS011;22094;52.130;5.598;2023-02-26T03:57:20;3.85;;;1.20;;
23716;SDS011;22094;52.130;5.598;2023-02-26T03:59:46;8.38;;;1.52;;
23716;SDS011;22094;52.130;5.598;2023-02-26T04:02:21;3.00;;;1.13;;
23716;SDS011;22094;52.130;5.598;2023-02-26T04:04:53;5.00;;;1.67;;
23716;SDS011;22094;52.130;5.598;2023-02-26T04:07:40;4.68;;;1.67;;
23716;SDS011;22094;52.130;5.598;2023-02-26T04:10:06;6.60;;;1.00;;
23716;SDS011;22094;52.130;5.598;2023-02-26T04:12:34;4.43;;;1.17;;
23716;SDS011;22094;52.130;5.598;2023-02-26T04:14:59;4.95;;;1.30;;
23716;SDS011;22094;52.130;5.598;2023-02-26T04:17:25;7.13;;;1.20;;
23716;SDS011;22094;52.130;5.598;2023-02-26T04:19:51;8.25;;;1.75;;
23716;SDS011;22094;52.130;5.598;2023-02-26T04:22:16;7.95;;;1.30;;
23716;SDS011;22094;52.130;5.598;2023-02-26T04:24:42;7.18;;;1.23;;
23716;SDS011;22094;52.130;5.598;2023-02-26T04:27:08;8.40;;;1.33;;
23716;SDS011;22094;52.130;5.598;2023-02-26T04:29:33;4.53;;;1.27;;
23716;SDS011;22094;52.130;5.598;2023-02-26T04:31:59;5.40;;;1.00;;
23716;SDS011;22094;52.130;5.598;2023-02-26T04:34:25;6.20;;;1.05;;
23716;SDS011;22094;52.130;5.598;2023-02-26T04:36:51;4.47;;;1.00;;
23716;SDS011;22094;52.130;5.598;2023-02-26T04:39:16;4.13;;;1.30;;
23716;SDS011;22094;52.130;5.598;2023-02-26T04:41:43;5.97;;;1.33;;
23716;SDS011;22094;52.130;5.598;2023-02-26T04:44:08;4.57;;;1.15;;
23716;SDS011;22094;52.130;5.598;2023-02-26T04:46:34;4.28;;;1.08;;
23716;SDS011;22094;52.130;5.598;2023-02-26T04:49:00;7.88;;;1.10;;
23716;SDS011;22094;52.130;5.598;2023-02-26T04:51:25;3.60;;;1.10;;
23716;SDS011;22094;52.130;5.598;2023-02-26T04:53:51;4.05;;;1.10;;
23716;SDS011;22094;52.130;5.598;2023-02-26T04:56:16;3.83;;;1.17;;
23716;SDS011;22094;52.130;5.598;2023-02-26T04:58:42;6.53;;;1.23;;
23716;SDS011;22094;52.130;5.598;2023-02-26T05:01:08;5.93;;;1.17;;
23716;SDS011;22094;52.130;5.598;2023-02-26T05:03:33;7.70;;;1.20;;
23716;SDS011;22094;52.130;5.598;2023-02-26T05:05:59;3.28;;;1.00;;
23716;SDS011;22094;52.130;5.598;2023-02-26T05:08:24;6.45;;;1.30;;
23716;SDS011;22094;52.130;5.598;2023-02-26T05:10:51;5.70;;;1.25;;
23716;SDS011;22094;52.130;5.598;2023-02-26T05:13:17;7.07;;;1.10;;
23716;SDS011;22094;52.130;5.598;2023-02-26T05:15:43;3.92;;;1.00;;
23716;SDS011;22094;52.130;5.598;2023-02-26T05:18:08;5.82;;;1.30;;
23716;SDS011;22094;52.130;5.598;2023-02-26T05:20:34;5.28;;;2.40;;
23716;SDS011;22094;52.130;5.598;2023-02-26T05:23:00;7.63;;;2.42;;
23716;SDS011;22094;52.130;5.598;2023-02-26T05:25:26;7.82;;;2.40;;
23716;SDS011;22094;52.130;5.598;2023-02-26T05:27:51;3.60;;;1.88;;
23716;SDS011;22094;52.130;5.598;2023-02-26T05:30:17;7.63;;;2.10;;
23716;SDS011;22094;52.130;5.598;2023-02-26T05:32:43;9.10;;;1.80;;
23716;SDS011;22094;52.130;5.598;2023-02-26T05:35:09;3.47;;;1.40;;
23716;SDS011;22094;52.130;5.598;2023-02-26T05:37:35;7.10;;;1.40;;
23716;SDS011;22094;52.130;5.598;2023-02-26T05:40:05;5.95;;;1.50;;
23716;SDS011;22094;52.130;5.598;2023-02-26T05:42:36;3.95;;;1.80;;
23716;SDS011;22094;52.130;5.598;2023-02-26T05:45:03;2.75;;;1.65;;
23716;SDS011;22094;52.130;5.598;2023-02-26T05:47:32;5.15;;;1.63;;
23716;SDS011;22094;52.130;5.598;2023-02-26T05:49:58;3.90;;;1.23;;
23716;SDS011;22094;52.130;5.598;2023-02-26T05:52:26;4.65;;;1.73;;
23716;SDS011;22094;52.130;5.598;2023-02-26T05:54:52;9.15;;;1.95;;
23716;SDS011;22094;52.130;5.598;2023-02-26T05:57:20;7.55;;;1.90;;
23716;SDS011;22094;52.130;5.598;2023-02-26T05:59:46;6.63;;;2.40;;
23716;SDS011;22094;52.130;5.598;2023-02-26T06:02:12;7.10;;;1.80;;
23716;SDS011;22094;52.130;5.598;2023-02-26T06:04:38;6.70;;;1.50;;
23716;SDS011;22094;52.130;5.598;2023-02-26T06:07:03;6.28;;;1.50;;
23716;SDS011;22094;52.130;5.598;2023-02-26T06:09:29;10.43;;;2.47;;
23716;SDS011;22094;52.130;5.598;2023-02-26T06:11:55;4.60;;;2.00;;
23716;SDS011;22094;52.130;5.598;2023-02-26T06:14:20;4.90;;;1.45;;
23716;SDS011;22094;52.130;5.598;2023-02-26T06:16:46;4.50;;;1.48;;
23716;SDS011;22094;52.130;5.598;2023-02-26T06:19:11;4.80;;;1.40;;
23716;SDS011;22094;52.130;5.598;2023-02-26T06:21:37;8.10;;;1.70;;
23716;SDS011;22094;52.130;5.598;2023-02-26T06:24:03;5.68;;;1.63;;
23716;SDS011;22094;52.130;5.598;2023-02-26T06:26:29;4.75;;;1.42;;
23716;SDS011;22094;52.130;5.598;2023-02-26T06:28:55;7.95;;;1.40;;
23716;SDS011;22094;52.130;5.598;2023-02-26T06:31:21;5.38;;;1.15;;
23716;SDS011;22094;52.130;5.598;2023-02-26T06:33:46;5.70;;;1.35;;
23716;SDS011;22094;52.130;5.598;2023-02-26T06:36:12;10.65;;;1.52;;
23716;SDS011;22094;52.130;5.598;2023-02-26T06:38:41;5.72;;;1.55;;
23716;SDS011;22094;52.130;5.598;2023-02-26T06:41:08;4.55;;;1.40;;
23716;SDS011;22094;52.130;5.598;2023-02-26T06:43:34;3.22;;;1.23;;
23716;SDS011;22094;52.130;5.598;2023-02-26T06:45:59;3.75;;;1.10;;
23716;SDS011;22094;52.130;5.598;2023-02-26T06:48:26;7.28;;;1.85;;
23716;SDS011;22094;52.130;5.598;2023-02-26T06:50:52;5.95;;;1.45;;
23716;SDS011;22094;52.130;5.598;2023-02-26T06:53:17;4.03;;;1.17;;
23716;SDS011;22094;52.130;5.598;2023-02-26T06:55:43;4.13;;;1.15;;
23716;SDS011;22094;52.130;5.598;2023-02-26T06:58:10;4.07;;;1.30;;
23716;SDS011;22094;52.130;5.598;2023-02-26T07:00:36;4.88;;;1.40;;
23716;SDS011;22094;52.130;5.598;2023-02-26T07:03:05;6.68;;;1.20;;
23716;SDS011;22094;52.130;5.598;2023-02-26T07:05:31;6.70;;;1.35;;
23716;SDS011;22094;52.130;5.598;2023-02-26T07:07:57;17.00;;;1.73;;
23716;SDS011;22094;52.130;5.598;2023-02-26T07:10:23;6.78;;;1.55;;
23716;SDS011;22094;52.130;5.598;2023-02-26T07:12:49;5.00;;;1.50;;
23716;SDS011;22094;52.130;5.598;2023-02-26T07:15:15;9.55;;;1.63;;
23716;SDS011;22094;52.130;5.598;2023-02-26T07:17:41;4.47;;;1.30;;
23716;SDS011;22094;52.130;5.598;2023-02-26T07:20:07;2.50;;;1.27;;
23716;SDS011;22094;52.130;5.598;2023-02-26T07:22:34;5.35;;;1.48;;
23716;SDS011;22094;52.130;5.598;2023-02-26T07:25:01;8.88;;;1.48;;
23716;SDS011;22094;52.130;5.598;2023-02-26T07:27:27;10.55;;;1.48;;
23716;SDS011;22094;52.130;5.598;2023-02-26T07:29:54;4.07;;;1.40;;
23716;SDS011;22094;52.130;5.598;2023-02-26T07:32:19;3.95;;;1.60;;
23716;SDS011;22094;52.130;5.598;2023-02-26T07:34:45;3.78;;;1.50;;
23716;SDS011;22094;52.130;5.598;2023-02-26T07:37:11;4.43;;;1.50;;
23716;SDS011;22094;52.130;5.598;2023-02-26T07:39:36;6.25;;;1.60;;
23716;SDS011;22094;52.130;5.598;2023-02-26T07:42:02;4.30;;;1.30;;
23716;SDS011;22094;52.130;5.598;2023-02-26T07:44:27;7.32;;;1.40;;
23716;SDS011;22094;52.130;5.598;2023-02-26T07:46:53;8.90;;;1.65;;
23716;SDS011;22094;52.130;5.598;2023-02-26T07:49:19;7.47;;;1.40;;
23716;SDS011;22094;52.130;5.598;2023-02-26T07:51:45;2.20;;;1.20;;
23716;SDS011;22094;52.130;5.598;2023-02-26T07:54:12;5.80;;;1.27;;
23716;SDS011;22094;52.130;5.598;2023-02-26T07:56:38;5.97;;;1.20;;
23716;SDS011;22094;52.130;5.598;2023-02-26T07:59:05;7.05;;;1.63;;
23716;SDS011;22094;52.130;5.598;2023-02-26T08:01:31;3.13;;;1.55;;
23716;SDS011;22094;52.130;5.598;2023-02-26T08:03:56;7.72;;;1.50;;
23716;SDS011;22094;52.130;5.598;2023-02-26T08:06:22;6.20;;;1.58;;
23716;SDS011;22094;52.130;5.598;2023-02-26T08:08:47;6.07;;;1.23;;
23716;SDS011;22094;52.130;5.598;2023-02-26T08:11:13;3.47;;;1.70;;
23716;SDS011;22094;52.130;5.598;2023-02-26T08:13:39;3.42;;;1.27;;
23716;SDS011;22094;52.130;5.598;2023-02-26T08:16:05;5.45;;;1.60;;
23716;SDS011;22094;52.130;5.598;2023-02-26T08:18:30;5.15;;;1.70;;
23716;SDS011;22094;52.130;5.598;2023-02-26T08:20:56;1.90;;;1.20;;
23716;SDS011;22094;52.130;5.598;2023-02-26T08:23:22;5.72;;;2.08;;
23716;SDS011;22094;52.130;5.598;2023-02-26T08:25:47;6.93;;;1.48;;
23716;SDS011;22094;52.130;5.598;2023-02-26T08:28:14;3.47;;;1.42;;
23716;SDS011;22094;52.130;5.598;2023-02-26T08:30:40;3.28;;;1.30;;
23716;SDS011;22094;52.130;5.598;2023-02-26T08:33:05;5.45;;;1.20;;
23716;SDS011;22094;52.130;5.598;2023-02-26T08:35:31;3.72;;;1.15;;
23716;SDS011;22094;52.130;5.598;2023-02-26T08:37:57;6.10;;;1.23;;
23716;SDS011;22094;52.130;5.598;2023-02-26T08:40:24;3.45;;;1.25;;
23716;SDS011;22094;52.130;5.598;2023-02-26T08:42:50;6.97;;;1.40;;
23716;SDS011;22094;52.130;5.598;2023-02-26T08:45:15;6.20;;;1.38;;
23716;SDS011;22094;52.130;5.598;2023-02-26T08:47:41;3.40;;;1.20;;
23716;SDS011;22094;52.130;5.598;2023-02-26T08:50:08;6.80;;;1.20;;
23716;SDS011;22094;52.130;5.598;2023-02-26T08:52:35;2.05;;;1.00;;
23716;SDS011;22094;52.130;5.598;2023-02-26T08:55:00;4.22;;;1.15;;
23716;SDS011;22094;52.130;5.598;2023-02-26T08:57:26;3.55;;;1.23;;
23716;SDS011;22094;52.130;5.598;2023-02-26T08:59:51;3.10;;;1.05;;
23716;SDS011;22094;52.130;5.598;2023-02-26T09:02:17;6.38;;;1.40;;
23716;SDS011;22094;52.130;5.598;2023-02-26T09:04:43;4.03;;;1.13;;
23716;SDS011;22094;52.130;5.598;2023-02-26T09:07:09;3.00;;;1.20;;
23716;SDS011;22094;52.130;5.598;2023-02-26T09:09:35;2.83;;;0.90;;
23716;SDS011;22094;52.130;5.598;2023-02-26T09:12:00;3.60;;;1.20;;
23716;SDS011;22094;52.130;5.598;2023-02-26T09:14:26;5.07;;;1.10;;
23716;SDS011;22094;52.130;5.598;2023-02-26T09:16:51;3.22;;;1.13;;
23716;SDS011;22094;52.130;5.598;2023-02-26T09:19:17;2.65;;;0.98;;
23716;SDS011;22094;52.130;5.598;2023-02-26T09:21:43;3.75;;;1.40;;
23716;SDS011;22094;52.130;5.598;2023-02-26T09:24:09;6.35;;;1.20;;
23716;SDS011;22094;52.130;5.598;2023-02-26T09:26:34;4.70;;;0.85;;
23716;SDS011;22094;52.130;5.598;2023-02-26T09:29:02;1.38;;;0.90;;
23716;SDS011;22094;52.130;5.598;2023-02-26T09:31:28;1.27;;;0.70;;
23716;SDS011;22094;52.130;5.598;2023-02-26T09:33:53;3.60;;;1.10;;
23716;SDS011;22094;52.130;5.598;2023-02-26T09:36:19;2.35;;;0.80;;
23716;SDS011;22094;52.130;5.598;2023-02-26T09:38:45;5.22;;;1.48;;
23716;SDS011;22094;52.130;5.598;2023-02-26T09:41:16;3.83;;;1.48;;
23716;SDS011;22094;52.130;5.598;2023-02-26T09:49:11;5.60;;;1.23;;
23716;SDS011;22094;52.130;5.598;2023-02-26T09:51:39;4.00;;;0.90;;
23716;SDS011;22094;52.130;5.598;2023-02-26T09:54:16;3.88;;;1.23;;
23716;SDS011;22094;52.130;5.598;2023-02-26T09:56:47;1.08;;;0.80;;
23716;SDS011;22094;52.130;5.598;2023-02-26T09:59:15;3.63;;;1.02;;
23716;SDS011;22094;52.130;5.598;2023-02-26T10:01:53;3.42;;;1.00;;
23716;SDS011;22094;52.130;5.598;2023-02-26T10:04:41;2.25;;;1.10;;
23716;SDS011;22094;52.130;5.598;2023-02-26T10:07:30;2.08;;;0.90;;
23716;SDS011;22094;52.130;5.598;2023-02-26T10:10:02;2.85;;;1.00;;
23716;SDS011;22094;52.130;5.598;2023-02-26T10:12:36;2.45;;;1.00;;
23716;SDS011;22094;52.130;5.598;2023-02-26T10:20:17;2.67;;;1.00;;
23716;SDS011;22094;52.130;5.598;2023-02-26T10:22:54;2.03;;;0.90;;
23716;SDS011;22094;52.130;5.598;2023-02-26T10:25:36;2.08;;;1.00;;
23716;SDS011;22094;52.130;5.598;2023-02-26T10:31:40;3.55;;;1.10;;
23716;SDS011;22094;52.130;5.598;2023-02-26T10:42:04;1.98;;;1.00;;
23716;SDS011;22094;52.130;5.598;2023-02-26T10:44:39;3.50;;;0.90;;
23716;SDS011;22094;52.130;5.598;2023-02-26T10:50:07;4.15;;;1.20;;
23716;SDS011;22094;52.130;5.598;2023-02-26T10:52:36;1.30;;;0.80;;
23716;SDS011;22094;52.130;5.598;2023-02-26T10:55:04;3.08;;;0.90;;
23716;SDS011;22094;52.130;5.598;2023-02-26T10:57:42;5.25;;;1.17;;
23716;SDS011;22094;52.130;5.598;2023-02-26T11:00:17;2.95;;;0.80;;
23716;SDS011;22094;52.130;5.598;2023-02-26T11:02:45;1.35;;;0.80;;
23716;SDS011;22094;52.130;5.598;2023-02-26T11:05:16;1.40;;;0.75;;
23716;SDS011;22094;52.130;5.598;2023-02-26T11:07:51;1.75;;;0.90;;
23716;SDS011;22094;52.130;5.598;2023-02-26T11:10:24;4.38;;;1.00;;
23716;SDS011;22094;52.130;5.598;2023-02-26T11:12:55;3.58;;;0.80;;
23716;SDS011;22094;52.130;5.598;2023-02-26T11:15:24;2.30;;;0.88;;
23716;SDS011;22094;52.130;5.598;2023-02-26T11:17:55;1.40;;;0.90;;
23716;SDS011;22094;52.130;5.598;2023-02-26T11:22:57;1.90;;;0.68;;
23716;SDS011;22094;52.130;5.598;2023-02-26T11:25:26;1.55;;;0.80;;
23716;SDS011;22094;52.130;5.598;2023-02-26T11:27:59;0.80;;;0.77;;
23716;SDS011;22094;52.130;5.598;2023-02-26T11:30:30;2.28;;;0.80;;
23716;SDS011;22094;52.130;5.598;2023-02-26T11:32:57;1.23;;;0.88;;
23716;SDS011;22094;52.130;5.598;2023-02-26T11:35:31;2.20;;;0.65;;
23716;SDS011;22094;52.130;5.598;2023-02-26T11:37:59;3.25;;;0.90;;
23716;SDS011;22094;52.130;5.598;2023-02-26T11:40:37;2.40;;;0.88;;
23716;SDS011;22094;52.130;5.598;2023-02-26T11:43:07;1.23;;;0.90;;
23716;SDS011;22094;52.130;5.598;2023-02-26T11:45:38;2.97;;;1.08;;
23716;SDS011;22094;52.130;5.598;2023-02-26T11:48:10;2.38;;;1.05;;
23716;SDS011;22094;52.130;5.598;2023-02-26T11:50:42;2.25;;;0.90;;
23716;SDS011;22094;52.130;5.598;2023-02-26T11:53:24;3.60;;;1.00;;
23716;SDS011;22094;52.130;5.598;2023-02-26T11:56:02;2.80;;;0.80;;
23716;SDS011;22094;52.130;5.598;2023-02-26T11:58:36;1.40;;;1.00;;
23716;SDS011;22094;52.130;5.598;2023-02-26T12:01:05;2.13;;;0.88;;
23716;SDS011;22094;52.130;5.598;2023-02-26T12:03:35;1.50;;;0.70;;
23716;SDS011;22094;52.130;5.598;2023-02-26T12:06:04;2.45;;;0.95;;
23716;SDS011;22094;52.130;5.598;2023-02-26T12:11:18;1.83;;;0.80;;
23716;SDS011;22094;52.130;5.598;2023-02-26T12:16:47;2.72;;;0.77;;
23716;SDS011;22094;52.130;5.598;2023-02-26T12:19:39;1.63;;;0.77;;
23716;SDS011;22094;52.130;5.598;2023-02-26T12:25:24;1.13;;;0.80;;
23716;SDS011;22094;52.130;5.598;2023-02-26T12:30:44;1.42;;;0.90;;
23716;SDS011;22094;52.130;5.598;2023-02-26T12:39:02;2.63;;;0.65;;
23716;SDS011;22094;52.130;5.598;2023-02-26T12:44:19;0.75;;;0.60;;
23716;SDS011;22094;52.130;5.598;2023-02-26T12:47:05;0.90;;;0.70;;
23716;SDS011;22094;52.130;5.598;2023-02-26T12:52:52;2.20;;;1.15;;
23716;SDS011;22094;52.130;5.598;2023-02-26T13:00:48;0.88;;;0.70;;
23716;SDS011;22094;52.130;5.598;2023-02-26T13:06:29;3.97;;;1.35;;
23716;SDS011;22094;52.130;5.598;2023-02-26T13:19:33;1.63;;;0.52;;
23716;SDS011;22094;52.130;5.598;2023-02-26T13:22:18;2.50;;;0.88;;
23716;SDS011;22094;52.130;5.598;2023-02-26T13:25:11;0.50;;;0.50;;
23716;SDS011;22094;52.130;5.598;2023-02-26T13:27:43;1.05;;;0.60;;
23716;SDS011;22094;52.130;5.598;2023-02-26T13:30:16;3.08;;;0.70;;
23716;SDS011;22094;52.130;5.598;2023-02-26T13:33:01;2.17;;;0.70;;
23716;SDS011;22094;52.130;5.598;2023-02-26T13:35:34;2.47;;;0.80;;
23716;SDS011;22094;52.130;5.598;2023-02-26T13:41:13;4.30;;;0.80;;
23716;SDS011;22094;52.130;5.598;2023-02-26T13:43:46;1.65;;;0.77;;
23716;SDS011;22094;52.130;5.598;2023-02-26T13:51:33;4.88;;;1.10;;
23716;SDS011;22094;52.130;5.598;2023-02-26T14:01:47;0.98;;;0.73;;
23716;SDS011;22094;52.130;5.598;2023-02-26T14:06:44;2.55;;;0.80;;
23716;SDS011;22094;52.130;5.598;2023-02-26T14:14:30;2.80;;;0.90;;
23716;SDS011;22094;52.130;5.598;2023-02-26T14:19:31;3.30;;;1.83;;
23716;SDS011;22094;52.130;5.598;2023-02-26T14:22:17;0.85;;;0.77;;
23716;SDS011;22094;52.130;5.598;2023-02-26T14:27:36;1.27;;;0.80;;
23716;SDS011;22094;52.130;5.598;2023-02-26T14:35:48;1.83;;;0.60;;
23716;SDS011;22094;52.130;5.598;2023-02-26T14:40:59;1.58;;;0.93;;
23716;SDS011;22094;52.130;5.598;2023-02-26T14:43:33;1.95;;;0.90;;
23716;SDS011;22094;52.130;5.598;2023-02-26T14:46:05;0.90;;;0.77;;
23716;SDS011;22094;52.130;5.598;2023-02-26T14:48:32;3.15;;;1.00;;
23716;SDS011;22094;52.130;5.598;2023-02-26T14:51:19;1.48;;;0.70;;
23716;SDS011;22094;52.130;5.598;2023-02-26T14:54:31;4.82;;;1.20;;
23716;SDS011;22094;52.130;5.598;2023-02-26T15:08:15;1.83;;;0.73;;
23716;SDS011;22094;52.130;5.598;2023-02-26T15:11:01;2.60;;;0.70;;
23716;SDS011;22094;52.130;5.598;2023-02-26T15:14:07;2.30;;;0.90;;
23716;SDS011;22094;52.130;5.598;2023-02-26T15:25:28;1.25;;;0.70;;
23716;SDS011;22094;52.130;5.598;2023-02-26T15:27:57;1.77;;;0.95;;
23716;SDS011;22094;52.130;5.598;2023-02-26T15:30:23;0.90;;;0.70;;
23716;SDS011;22094;52.130;5.598;2023-02-26T15:32:54;3.50;;;0.70;;
23716;SDS011;22094;52.130;5.598;2023-02-26T15:35:29;3.42;;;0.80;;
23716;SDS011;22094;52.130;5.598;2023-02-26T15:37:57;4.13;;;0.82;;
23716;SDS011;22094;52.130;5.598;2023-02-26T15:40:26;2.33;;;0.82;;
23716;SDS011;22094;52.130;5.598;2023-02-26T15:42:56;3.25;;;0.68;;
23716;SDS011;22094;52.130;5.598;2023-02-26T15:47:50;1.45;;;0.70;;
23716;SDS011;22094;52.130;5.598;2023-02-26T15:50:23;1.63;;;0.90;;
23716;SDS011;22094;52.130;5.598;2023-02-26T15:52:54;2.35;;;0.65;;
23716;SDS011;22094;52.130;5.598;2023-02-26T15:55:23;1.08;;;0.63;;
23716;SDS011;22094;52.130;5.598;2023-02-26T15:57:50;1.58;;;0.70;;
23716;SDS011;22094;52.130;5.598;2023-02-26T16:00:19;1.13;;;0.77;;
23716;SDS011;22094;52.130;5.598;2023-02-26T16:02:49;2.63;;;1.00;;
23716;SDS011;22094;52.130;5.598;2023-02-26T16:05:17;1.33;;;0.80;;
23716;SDS011;22094;52.130;5.598;2023-02-26T16:07:43;3.00;;;0.82;;
23716;SDS011;22094;52.130;5.598;2023-02-26T16:10:17;2.83;;;1.00;;
23716;SDS011;22094;52.130;5.598;2023-02-26T16:12:56;2.80;;;1.00;;
23716;SDS011;22094;52.130;5.598;2023-02-26T16:15:31;2.85;;;1.20;;
23716;SDS011;22094;52.130;5.598;2023-02-26T16:17:59;1.23;;;0.82;;
23716;SDS011;22094;52.130;5.598;2023-02-26T16:20:28;1.52;;;1.02;;
23716;SDS011;22094;52.130;5.598;2023-02-26T16:23:06;2.15;;;1.00;;
23716;SDS011;22094;52.130;5.598;2023-02-26T16:25:47;2.45;;;1.38;;
23716;SDS011;22094;52.130;5.598;2023-02-26T16:28:20;6.63;;;1.73;;
23716;SDS011;22094;52.130;5.598;2023-02-26T16:30:51;3.58;;;1.63;;
23716;SDS011;22094;52.130;5.598;2023-02-26T16:33:20;2.75;;;1.10;;
23716;SDS011;22094;52.130;5.598;2023-02-26T16:36:35;2.38;;;1.10;;
23716;SDS011;22094;52.130;5.598;2023-02-26T16:38:44;3.03;;;1.20;;
23716;SDS011;22094;52.130;5.598;2023-02-26T16:41:13;5.97;;;1.25;;
23716;SDS011;22094;52.130;5.598;2023-02-26T16:46:15;2.70;;;0.90;;
23716;SDS011;22094;52.130;5.598;2023-02-26T16:48:48;2.95;;;1.00;;
23716;SDS011;22094;52.130;5.598;2023-02-26T16:51:18;2.97;;;1.00;;
23716;SDS011;22094;52.130;5.598;2023-02-26T16:53:47;3.90;;;1.17;;
23716;SDS011;22094;52.130;5.598;2023-02-26T16:56:17;4.85;;;1.33;;
23716;SDS011;22094;52.130;5.598;2023-02-26T16:58:46;2.70;;;0.95;;
23716;SDS011;22094;52.130;5.598;2023-02-26T17:01:16;3.53;;;1.00;;
23716;SDS011;22094;52.130;5.598;2023-02-26T17:03:45;3.05;;;0.90;;
23716;SDS011;22094;52.130;5.598;2023-02-26T17:06:14;3.83;;;1.17;;
23716;SDS011;22094;52.130;5.598;2023-02-26T17:11:18;4.28;;;1.10;;
23716;SDS011;22094;52.130;5.598;2023-02-26T17:14:07;5.78;;;1.33;;
23716;SDS011;22094;52.130;5.598;2023-02-26T17:16:46;3.95;;;1.08;;
23716;SDS011;22094;52.130;5.598;2023-02-26T17:19:16;2.28;;;1.30;;
23716;SDS011;22094;52.130;5.598;2023-02-26T17:21:46;3.17;;;1.30;;
23716;SDS011;22094;52.130;5.598;2023-02-26T17:24:42;4.82;;;1.27;;
23716;SDS011;22094;52.130;5.598;2023-02-26T17:27:10;4.28;;;1.60;;
23716;SDS011;22094;52.130;5.598;2023-02-26T17:29:40;5.47;;;1.90;;
23716;SDS011;22094;52.130;5.598;2023-02-26T17:32:12;7.93;;;1.90;;
23716;SDS011;22094;52.130;5.598;2023-02-26T17:34:44;4.53;;;2.30;;
23716;SDS011;22094;52.130;5.598;2023-02-26T17:37:10;9.43;;;2.17;;
23716;SDS011;22094;52.130;5.598;2023-02-26T17:39:36;4.88;;;1.98;;
23716;SDS011;22094;52.130;5.598;2023-02-26T17:42:02;6.78;;;2.63;;
23716;SDS011;22094;52.130;5.598;2023-02-26T17:44:28;7.75;;;2.55;;
23716;SDS011;22094;52.130;5.598;2023-02-26T17:46:53;5.55;;;1.90;;
23716;SDS011;22094;52.130;5.598;2023-02-26T17:49:19;6.82;;;2.60;;
23716;SDS011;22094;52.130;5.598;2023-02-26T17:51:44;9.73;;;3.30;;
23716;SDS011;22094;52.130;5.598;2023-02-26T17:54:10;8.18;;;2.53;;
23716;SDS011;22094;52.130;5.598;2023-02-26T17:56:36;8.05;;;2.33;;
23716;SDS011;22094;52.130;5.598;2023-02-26T17:59:02;6.25;;;2.88;;
23716;SDS011;22094;52.130;5.598;2023-02-26T18:01:29;6.45;;;3.75;;
23716;SDS011;22094;52.130;5.598;2023-02-26T18:03:55;5.00;;;2.30;;
23716;SDS011;22094;52.130;5.598;2023-02-26T18:06:21;4.90;;;2.30;;
23716;SDS011;22094;52.130;5.598;2023-02-26T18:08:47;10.75;;;3.50;;
23716;SDS011;22094;52.130;5.598;2023-02-26T18:11:14;8.45;;;3.05;;
23716;SDS011;22094;52.130;5.598;2023-02-26T18:13:41;7.22;;;3.45;;